sensor_id;sensor_type;location;lat;lon;timestamp;P1;durP1;ratioP1;P2;durP2;ratioP2
22017;SDS011;11173;51.050;7.108;2022-08-01T00:03:04;1.67;;;1.08;;
22017;SDS011;11173;51.050;7.108;2022-08-01T00:08:04;1.35;;;1.00;;
22017;SDS011;11173;51.050;7.108;2022-08-01T00:13:05;1.37;;;0.87;;
22017;SDS011;11173;51.050;7.108;2022-08-01T00:18:05;0.87;;;0.80;;
22017;SDS011;11173;51.050;7.108;2022-08-01T00:23:05;0.55;;;0.55;;
22017;SDS011;11173;51.050;7.108;2022-08-01T00:28:06;1.00;;;0.60;;
22017;SDS011;11173;51.050;7.108;2022-08-01T00:33:08;1.10;;;0.73;;
22017;SDS011;11173;51.050;7.108;2022-08-01T00:38:09;0.60;;;0.60;;
22017;SDS011;11173;51.050;7.108;2022-08-01T00:43:09;0.45;;;0.43;;
22017;SDS011;11173;51.050;7.108;2022-08-01T00:48:09;0.70;;;0.70;;
22017;SDS011;11173;51.050;7.108;2022-08-01T00:53:10;0.60;;;0.60;;
22017;SDS011;11173;51.050;7.108;2022-08-01T00:58:10;0.68;;;0.60;;
22017;SDS011;11173;51.050;7.108;2022-08-01T01:03:11;0.68;;;0.63;;
22017;SDS011;11173;51.050;7.108;2022-08-01T01:08:13;0.88;;;0.70;;
22017;SDS011;11173;51.050;7.108;2022-08-01T01:13:33;1.55;;;0.82;;
22017;SDS011;11173;51.050;7.108;2022-08-01T01:29:06;0.77;;;0.70;;
22017;SDS011;11173;51.050;7.108;2022-08-01T01:34:14;1.67;;;1.00;;
22017;SDS011;11173;51.050;7.108;2022-08-01T01:39:17;1.10;;;1.10;;
22017;SDS011;11173;51.050;7.108;2022-08-01T01:44:19;1.48;;;1.38;;
22017;SDS011;11173;51.050;7.108;2022-08-01T01:49:21;1.83;;;1.35;;
22017;SDS011;11173;51.050;7.108;2022-08-01T01:54:27;3.58;;;1.63;;
22017;SDS011;11173;51.050;7.108;2022-08-01T01:59:31;2.20;;;1.98;;
22017;SDS011;11173;51.050;7.108;2022-08-01T02:04:39;2.28;;;1.60;;
22017;SDS011;11173;51.050;7.108;2022-08-01T02:09:43;1.67;;;1.30;;
22017;SDS011;11173;51.050;7.108;2022-08-01T02:14:45;4.07;;;1.83;;
22017;SDS011;11173;51.050;7.108;2022-08-01T02:19:48;2.47;;;1.40;;
22017;SDS011;11173;51.050;7.108;2022-08-01T02:29:52;1.67;;;1.00;;
22017;SDS011;11173;51.050;7.108;2022-08-01T02:34:56;0.80;;;0.80;;
22017;SDS011;11173;51.050;7.108;2022-08-01T02:40:00;1.00;;;0.95;;
22017;SDS011;11173;51.050;7.108;2022-08-01T02:45:02;1.20;;;1.10;;
22017;SDS011;11173;51.050;7.108;2022-08-01T02:50:04;1.92;;;0.80;;
22017;SDS011;11173;51.050;7.108;2022-08-01T02:55:08;0.60;;;0.60;;
22017;SDS011;11173;51.050;7.108;2022-08-01T03:00:11;0.88;;;0.70;;
22017;SDS011;11173;51.050;7.108;2022-08-01T03:05:12;2.15;;;1.15;;
22017;SDS011;11173;51.050;7.108;2022-08-01T03:10:14;1.20;;;0.90;;
22017;SDS011;11173;51.050;7.108;2022-08-01T03:15:16;0.95;;;0.80;;
22017;SDS011;11173;51.050;7.108;2022-08-01T03:20:18;1.38;;;1.20;;
22017;SDS011;11173;51.050;7.108;2022-08-01T03:25:22;0.80;;;0.80;;
22017;SDS011;11173;51.050;7.108;2022-08-01T03:30:24;1.40;;;1.10;;
22017;SDS011;11173;51.050;7.108;2022-08-01T03:35:27;1.60;;;1.50;;
22017;SDS011;11173;51.050;7.108;2022-08-01T03:45:41;1.67;;;1.58;;
22017;SDS011;11173;51.050;7.108;2022-08-01T03:50:46;1.60;;;1.50;;
22017;SDS011;11173;51.050;7.108;2022-08-01T03:55:50;1.42;;;1.33;;
22017;SDS011;11173;51.050;7.108;2022-08-01T04:00:51;2.30;;;2.13;;
22017;SDS011;11173;51.050;7.108;2022-08-01T04:05:52;2.63;;;2.42;;
22017;SDS011;11173;51.050;7.108;2022-08-01T04:10:53;2.60;;;2.40;;
22017;SDS011;11173;51.050;7.108;2022-08-01T04:15:53;4.00;;;2.85;;
22017;SDS011;11173;51.050;7.108;2022-08-01T04:20:54;2.97;;;2.20;;
22017;SDS011;11173;51.050;7.108;2022-08-01T04:25:54;2.70;;;2.50;;
22017;SDS011;11173;51.050;7.108;2022-08-01T04:30:57;3.05;;;2.17;;
22017;SDS011;11173;51.050;7.108;2022-08-01T04:35:59;2.95;;;2.70;;
22017;SDS011;11173;51.050;7.108;2022-08-01T04:41:02;2.50;;;2.20;;
22017;SDS011;11173;51.050;7.108;2022-08-01T04:46:03;2.05;;;1.95;;
22017;SDS011;11173;51.050;7.108;2022-08-01T04:51:11;1.80;;;1.70;;
22017;SDS011;11173;51.050;7.108;2022-08-01T04:56:15;4.00;;;2.40;;
22017;SDS011;11173;51.050;7.108;2022-08-01T05:01:15;1.48;;;1.38;;
22017;SDS011;11173;51.050;7.108;2022-08-01T05:06:16;1.75;;;1.65;;
22017;SDS011;11173;51.050;7.108;2022-08-01T05:11:16;2.80;;;2.33;;
22017;SDS011;11173;51.050;7.108;2022-08-01T05:16:17;1.40;;;1.30;;
22017;SDS011;11173;51.050;7.108;2022-08-01T05:21:17;1.90;;;1.80;;
22017;SDS011;11173;51.050;7.108;2022-08-01T05:26:17;2.63;;;1.60;;
22017;SDS011;11173;51.050;7.108;2022-08-01T05:31:18;2.40;;;1.93;;
22017;SDS011;11173;51.050;7.108;2022-08-01T05:36:18;2.53;;;2.33;;
22017;SDS011;11173;51.050;7.108;2022-08-01T05:41:18;2.17;;;1.97;;
22017;SDS011;11173;51.050;7.108;2022-08-01T05:46:19;2.97;;;2.55;;
22017;SDS011;11173;51.050;7.108;2022-08-01T05:51:19;2.33;;;2.17;;
22017;SDS011;11173;51.050;7.108;2022-08-01T05:56:20;3.10;;;2.80;;
22017;SDS011;11173;51.050;7.108;2022-08-01T06:01:21;2.05;;;1.95;;
22017;SDS011;11173;51.050;7.108;2022-08-01T06:06:21;2.80;;;2.60;;
22017;SDS011;11173;51.050;7.108;2022-08-01T06:11:22;2.17;;;2.08;;
22017;SDS011;11173;51.050;7.108;2022-08-01T06:16:22;2.38;;;1.25;;
22017;SDS011;11173;51.050;7.108;2022-08-01T06:21:23;1.75;;;1.65;;
22017;SDS011;11173;51.050;7.108;2022-08-01T06:26:23;1.63;;;1.52;;
22017;SDS011;11173;51.050;7.108;2022-08-01T06:31:24;2.17;;;1.97;;
22017;SDS011;11173;51.050;7.108;2022-08-01T06:36:24;1.42;;;1.33;;
22017;SDS011;11173;51.050;7.108;2022-08-01T06:41:25;3.97;;;3.58;;
22017;SDS011;11173;51.050;7.108;2022-08-01T06:46:25;3.58;;;3.20;;
22017;SDS011;11173;51.050;7.108;2022-08-01T06:51:26;4.38;;;3.00;;
22017;SDS011;11173;51.050;7.108;2022-08-01T06:56:26;2.10;;;2.00;;
22017;SDS011;11173;51.050;7.108;2022-08-01T07:01:27;2.53;;;2.33;;
22017;SDS011;11173;51.050;7.108;2022-08-01T07:06:29;1.80;;;1.70;;
22017;SDS011;11173;51.050;7.108;2022-08-01T07:11:29;2.05;;;1.95;;
22017;SDS011;11173;51.050;7.108;2022-08-01T07:16:30;2.25;;;2.05;;
22017;SDS011;11173;51.050;7.108;2022-08-01T07:21:30;1.23;;;1.23;;
22017;SDS011;11173;51.050;7.108;2022-08-01T07:26:30;1.17;;;1.17;;
22017;SDS011;11173;51.050;7.108;2022-08-01T07:31:31;1.93;;;1.83;;
22017;SDS011;11173;51.050;7.108;2022-08-01T07:36:31;2.07;;;1.87;;
22017;SDS011;11173;51.050;7.108;2022-08-01T07:41:31;2.87;;;2.57;;
22017;SDS011;11173;51.050;7.108;2022-08-01T07:46:32;2.03;;;1.92;;
22017;SDS011;11173;51.050;7.108;2022-08-01T07:51:35;2.97;;;2.72;;
22017;SDS011;11173;51.050;7.108;2022-08-01T07:56:35;2.25;;;2.05;;
22017;SDS011;11173;51.050;7.108;2022-08-01T08:01:36;1.37;;;1.27;;
22017;SDS011;11173;51.050;7.108;2022-08-01T08:06:36;2.83;;;1.63;;
22017;SDS011;11173;51.050;7.108;2022-08-01T08:11:36;1.13;;;1.02;;
22017;SDS011;11173;51.050;7.108;2022-08-01T08:16:37;1.90;;;1.80;;
22017;SDS011;11173;51.050;7.108;2022-08-01T08:21:38;2.22;;;2.13;;
22017;SDS011;11173;51.050;7.108;2022-08-01T08:26:39;1.70;;;1.60;;
22017;SDS011;11173;51.050;7.108;2022-08-01T08:31:39;1.50;;;1.40;;
22017;SDS011;11173;51.050;7.108;2022-08-01T08:36:40;1.65;;;1.55;;
22017;SDS011;11173;51.050;7.108;2022-08-01T08:41:41;1.60;;;1.50;;
22017;SDS011;11173;51.050;7.108;2022-08-01T08:46:42;3.40;;;2.90;;
22017;SDS011;11173;51.050;7.108;2022-08-01T08:51:46;2.67;;;2.47;;
22017;SDS011;11173;51.050;7.108;2022-08-01T08:56:50;1.60;;;1.50;;
22017;SDS011;11173;51.050;7.108;2022-08-01T09:01:52;1.63;;;1.52;;
22017;SDS011;11173;51.050;7.108;2022-08-01T09:06:53;1.75;;;1.65;;
22017;SDS011;11173;51.050;7.108;2022-08-01T09:11:54;1.10;;;1.10;;
22017;SDS011;11173;51.050;7.108;2022-08-01T09:22:11;1.48;;;1.38;;
22017;SDS011;11173;51.050;7.108;2022-08-01T09:27:20;0.80;;;0.80;;
22017;SDS011;11173;51.050;7.108;2022-08-01T09:32:23;0.73;;;0.73;;
22017;SDS011;11173;51.050;7.108;2022-08-01T09:37:29;1.77;;;1.40;;
22017;SDS011;11173;51.050;7.108;2022-08-01T09:42:30;1.38;;;1.10;;
22017;SDS011;11173;51.050;7.108;2022-08-01T09:47:37;0.93;;;0.93;;
22017;SDS011;11173;51.050;7.108;2022-08-01T09:52:38;0.63;;;0.63;;
22017;SDS011;11173;51.050;7.108;2022-08-01T09:57:39;0.68;;;0.68;;
22017;SDS011;11173;51.050;7.108;2022-08-01T10:02:39;0.90;;;0.90;;
22017;SDS011;11173;51.050;7.108;2022-08-01T10:07:59;1.00;;;0.50;;
22017;SDS011;11173;51.050;7.108;2022-08-01T10:13:04;0.60;;;0.60;;
22017;SDS011;11173;51.050;7.108;2022-08-01T10:18:06;0.73;;;0.73;;
22017;SDS011;11173;51.050;7.108;2022-08-01T10:23:09;1.27;;;1.15;;
22017;SDS011;11173;51.050;7.108;2022-08-01T10:28:13;0.90;;;0.90;;
22017;SDS011;11173;51.050;7.108;2022-08-01T10:33:16;1.08;;;0.90;;
22017;SDS011;11173;51.050;7.108;2022-08-01T10:38:21;0.93;;;0.75;;
22017;SDS011;11173;51.050;7.108;2022-08-01T10:43:23;1.45;;;1.35;;
22017;SDS011;11173;51.050;7.108;2022-08-01T10:48:29;0.93;;;0.93;;
22017;SDS011;11173;51.050;7.108;2022-08-01T10:53:35;1.02;;;0.93;;
22017;SDS011;11173;51.050;7.108;2022-08-01T10:58:36;0.60;;;0.60;;
22017;SDS011;11173;51.050;7.108;2022-08-01T11:03:37;1.20;;;1.20;;
22017;SDS011;11173;51.050;7.108;2022-08-01T11:08:38;2.40;;;1.37;;
22017;SDS011;11173;51.050;7.108;2022-08-01T11:18:58;0.73;;;0.73;;
22017;SDS011;11173;51.050;7.108;2022-08-01T11:23:58;0.60;;;0.60;;
22017;SDS011;11173;51.050;7.108;2022-08-01T11:29:15;0.80;;;0.80;;
22017;SDS011;11173;51.050;7.108;2022-08-01T11:34:16;0.60;;;0.60;;
22017;SDS011;11173;51.050;7.108;2022-08-01T11:39:17;1.10;;;0.90;;
22017;SDS011;11173;51.050;7.108;2022-08-01T11:44:19;0.90;;;0.90;;
22017;SDS011;11173;51.050;7.108;2022-08-01T11:54:39;0.80;;;0.80;;
22017;SDS011;11173;51.050;7.108;2022-08-01T11:59:54;0.80;;;0.80;;
22017;SDS011;11173;51.050;7.108;2022-08-01T12:05:07;0.60;;;0.60;;
22017;SDS011;11173;51.050;7.108;2022-08-01T12:10:11;0.50;;;0.50;;
22017;SDS011;11173;51.050;7.108;2022-08-01T12:15:13;0.65;;;0.65;;
22017;SDS011;11173;51.050;7.108;2022-08-01T12:20:20;0.50;;;0.50;;
22017;SDS011;11173;51.050;7.108;2022-08-01T12:25:22;0.60;;;0.60;;
22017;SDS011;11173;51.050;7.108;2022-08-01T12:30:22;0.50;;;0.50;;
22017;SDS011;11173;51.050;7.108;2022-08-01T12:35:24;0.30;;;0.30;;
22017;SDS011;11173;51.050;7.108;2022-08-01T12:40:31;0.60;;;0.60;;
22017;SDS011;11173;51.050;7.108;2022-08-01T12:45:34;0.52;;;0.52;;
22017;SDS011;11173;51.050;7.108;2022-08-01T12:50:36;0.40;;;0.40;;
22017;SDS011;11173;51.050;7.108;2022-08-01T12:55:49;0.30;;;0.30;;
22017;SDS011;11173;51.050;7.108;2022-08-01T13:01:01;0.30;;;0.30;;
22017;SDS011;11173;51.050;7.108;2022-08-01T13:06:13;0.20;;;0.20;;
22017;SDS011;11173;51.050;7.108;2022-08-01T13:11:15;0.10;;;0.10;;
22017;SDS011;11173;51.050;7.108;2022-08-01T13:16:17;0.25;;;0.20;;
22017;SDS011;11173;51.050;7.108;2022-08-01T13:21:23;0.20;;;0.20;;
22017;SDS011;11173;51.050;7.108;2022-08-01T13:31:48;0.22;;;0.20;;
22017;SDS011;11173;51.050;7.108;2022-08-01T13:36:49;0.20;;;0.20;;
22017;SDS011;11173;51.050;7.108;2022-08-01T13:41:49;0.30;;;0.30;;
22017;SDS011;11173;51.050;7.108;2022-08-01T13:46:50;0.28;;;0.28;;
22017;SDS011;11173;51.050;7.108;2022-08-01T13:51:51;0.20;;;0.20;;
22017;SDS011;11173;51.050;7.108;2022-08-01T13:56:51;0.33;;;0.30;;
22017;SDS011;11173;51.050;7.108;2022-08-01T14:01:52;0.30;;;0.30;;
22017;SDS011;11173;51.050;7.108;2022-08-01T14:06:53;0.10;;;0.10;;
22017;SDS011;11173;51.050;7.108;2022-08-01T14:11:53;0.38;;;0.38;;
22017;SDS011;11173;51.050;7.108;2022-08-01T14:16:54;0.17;;;0.17;;
22017;SDS011;11173;51.050;7.108;2022-08-01T14:21:54;0.38;;;0.25;;
22017;SDS011;11173;51.050;7.108;2022-08-01T14:26:56;0.20;;;0.20;;
22017;SDS011;11173;51.050;7.108;2022-08-01T14:31:57;0.20;;;0.20;;
22017;SDS011;11173;51.050;7.108;2022-08-01T14:36:57;0.20;;;0.20;;
22017;SDS011;11173;51.050;7.108;2022-08-01T14:41:57;0.30;;;0.30;;
22017;SDS011;11173;51.050;7.108;2022-08-01T14:46:58;0.30;;;0.30;;
22017;SDS011;11173;51.050;7.108;2022-08-01T14:51:58;0.38;;;0.30;;
22017;SDS011;11173;51.050;7.108;2022-08-01T14:56:59;0.20;;;0.20;;
22017;SDS011;11173;51.050;7.108;2022-08-01T15:01:59;0.20;;;0.20;;
22017;SDS011;11173;51.050;7.108;2022-08-01T15:07:00;0.30;;;0.28;;
22017;SDS011;11173;51.050;7.108;2022-08-01T15:12:00;0.60;;;0.40;;
22017;SDS011;11173;51.050;7.108;2022-08-01T15:17:00;0.43;;;0.30;;
22017;SDS011;11173;51.050;7.108;2022-08-01T15:22:01;0.63;;;0.28;;
22017;SDS011;11173;51.050;7.108;2022-08-01T15:27:02;0.22;;;0.20;;
22017;SDS011;11173;51.050;7.108;2022-08-01T15:32:03;0.30;;;0.30;;
22017;SDS011;11173;51.050;7.108;2022-08-01T15:37:04;0.30;;;0.30;;
22017;SDS011;11173;51.050;7.108;2022-08-01T15:42:10;0.47;;;0.47;;
22017;SDS011;11173;51.050;7.108;2022-08-01T15:47:12;0.20;;;0.20;;
22017;SDS011;11173;51.050;7.108;2022-08-01T15:52:12;0.30;;;0.30;;
22017;SDS011;11173;51.050;7.108;2022-08-01T15:57:13;0.68;;;0.30;;
22017;SDS011;11173;51.050;7.108;2022-08-01T16:02:13;0.40;;;0.32;;
22017;SDS011;11173;51.050;7.108;2022-08-01T16:07:13;1.33;;;0.30;;
22017;SDS011;11173;51.050;7.108;2022-08-01T16:12:14;0.53;;;0.20;;
22017;SDS011;11173;51.050;7.108;2022-08-01T16:17:14;0.30;;;0.30;;
22017;SDS011;11173;51.050;7.108;2022-08-01T16:22:15;0.20;;;0.20;;
22017;SDS011;11173;51.050;7.108;2022-08-01T16:27:15;0.20;;;0.20;;
22017;SDS011;11173;51.050;7.108;2022-08-01T16:32:16;0.25;;;0.25;;
22017;SDS011;11173;51.050;7.108;2022-08-01T16:37:16;0.20;;;0.20;;
22017;SDS011;11173;51.050;7.108;2022-08-01T16:42:17;0.47;;;0.30;;
22017;SDS011;11173;51.050;7.108;2022-08-01T16:47:17;0.30;;;0.30;;
22017;SDS011;11173;51.050;7.108;2022-08-01T16:52:18;0.10;;;0.10;;
22017;SDS011;11173;51.050;7.108;2022-08-01T16:57:18;0.10;;;0.10;;
22017;SDS011;11173;51.050;7.108;2022-08-01T17:02:19;0.13;;;0.13;;
22017;SDS011;11173;51.050;7.108;2022-08-01T17:07:19;0.60;;;0.20;;
22017;SDS011;11173;51.050;7.108;2022-08-01T17:12:20;0.10;;;0.10;;
22017;SDS011;11173;51.050;7.108;2022-08-01T17:17:20;0.45;;;0.40;;
22017;SDS011;11173;51.050;7.108;2022-08-01T17:22:24;0.20;;;0.20;;
22017;SDS011;11173;51.050;7.108;2022-08-01T17:27:25;0.20;;;0.20;;
22017;SDS011;11173;51.050;7.108;2022-08-01T17:32:25;0.20;;;0.20;;
22017;SDS011;11173;51.050;7.108;2022-08-01T17:37:25;0.10;;;0.10;;
22017;SDS011;11173;51.050;7.108;2022-08-01T17:42:26;0.50;;;0.32;;
22017;SDS011;11173;51.050;7.108;2022-08-01T17:47:29;0.30;;;0.30;;
22017;SDS011;11173;51.050;7.108;2022-08-01T17:52:30;0.30;;;0.30;;
22017;SDS011;11173;51.050;7.108;2022-08-01T17:57:31;0.13;;;0.13;;
22017;SDS011;11173;51.050;7.108;2022-08-01T18:02:31;0.20;;;0.20;;
22017;SDS011;11173;51.050;7.108;2022-08-01T18:07:32;0.20;;;0.20;;
22017;SDS011;11173;51.050;7.108;2022-08-01T18:12:32;0.30;;;0.30;;
22017;SDS011;11173;51.050;7.108;2022-08-01T18:17:33;0.30;;;0.30;;
22017;SDS011;11173;51.050;7.108;2022-08-01T18:22:33;0.20;;;0.20;;
22017;SDS011;11173;51.050;7.108;2022-08-01T18:27:33;0.30;;;0.30;;
22017;SDS011;11173;51.050;7.108;2022-08-01T18:32:34;0.20;;;0.20;;
22017;SDS011;11173;51.050;7.108;2022-08-01T18:37:35;0.20;;;0.20;;
22017;SDS011;11173;51.050;7.108;2022-08-01T18:42:35;0.52;;;0.17;;
22017;SDS011;11173;51.050;7.108;2022-08-01T18:47:35;0.43;;;0.28;;
22017;SDS011;11173;51.050;7.108;2022-08-01T18:52:36;0.22;;;0.22;;
22017;SDS011;11173;51.050;7.108;2022-08-01T18:57:36;0.22;;;0.20;;
22017;SDS011;11173;51.050;7.108;2022-08-01T19:02:37;0.15;;;0.15;;
22017;SDS011;11173;51.050;7.108;2022-08-01T19:07:37;0.32;;;0.25;;
22017;SDS011;11173;51.050;7.108;2022-08-01T19:12:38;0.40;;;0.22;;
22017;SDS011;11173;51.050;7.108;2022-08-01T19:17:38;0.10;;;0.10;;
22017;SDS011;11173;51.050;7.108;2022-08-01T19:22:38;0.52;;;0.20;;
22017;SDS011;11173;51.050;7.108;2022-08-01T19:27:39;0.17;;;0.17;;
22017;SDS011;11173;51.050;7.108;2022-08-01T19:32:45;0.32;;;0.30;;
22017;SDS011;11173;51.050;7.108;2022-08-01T19:37:47;0.55;;;0.20;;
22017;SDS011;11173;51.050;7.108;2022-08-01T19:42:50;0.22;;;0.22;;
22017;SDS011;11173;51.050;7.108;2022-08-01T19:47:51;0.47;;;0.30;;
22017;SDS011;11173;51.050;7.108;2022-08-01T19:52:51;0.20;;;0.20;;
22017;SDS011;11173;51.050;7.108;2022-08-01T19:57:54;0.32;;;0.20;;
22017;SDS011;11173;51.050;7.108;2022-08-01T20:02:56;0.32;;;0.32;;
22017;SDS011;11173;51.050;7.108;2022-08-01T20:07:58;0.10;;;0.10;;
22017;SDS011;11173;51.050;7.108;2022-08-01T20:12:59;0.10;;;0.10;;
22017;SDS011;11173;51.050;7.108;2022-08-01T20:18:00;0.20;;;0.20;;
22017;SDS011;11173;51.050;7.108;2022-08-01T20:23:00;0.20;;;0.20;;
22017;SDS011;11173;51.050;7.108;2022-08-01T20:28:02;0.35;;;0.20;;
22017;SDS011;11173;51.050;7.108;2022-08-01T20:33:05;0.30;;;0.30;;
22017;SDS011;11173;51.050;7.108;2022-08-01T20:38:06;0.60;;;0.30;;
22017;SDS011;11173;51.050;7.108;2022-08-01T20:43:08;0.13;;;0.13;;
22017;SDS011;11173;51.050;7.108;2022-08-01T20:48:08;0.20;;;0.20;;
22017;SDS011;11173;51.050;7.108;2022-08-01T20:53:10;0.30;;;0.20;;
22017;SDS011;11173;51.050;7.108;2022-08-01T20:58:11;0.20;;;0.20;;
22017;SDS011;11173;51.050;7.108;2022-08-01T21:03:21;0.20;;;0.20;;
22017;SDS011;11173;51.050;7.108;2022-08-01T21:08:31;0.30;;;0.30;;
22017;SDS011;11173;51.050;7.108;2022-08-01T21:13:40;0.32;;;0.32;;
22017;SDS011;11173;51.050;7.108;2022-08-01T21:18:54;0.30;;;0.20;;
22017;SDS011;11173;51.050;7.108;2022-08-01T21:23:58;0.10;;;0.10;;
22017;SDS011;11173;51.050;7.108;2022-08-01T21:29:04;2.65;;;0.20;;
22017;SDS011;11173;51.050;7.108;2022-08-01T21:34:05;0.20;;;0.20;;
22017;SDS011;11173;51.050;7.108;2022-08-01T21:39:07;0.50;;;0.38;;
22017;SDS011;11173;51.050;7.108;2022-08-01T21:44:07;2.15;;;0.60;;
22017;SDS011;11173;51.050;7.108;2022-08-01T21:49:13;0.40;;;0.32;;
22017;SDS011;11173;51.050;7.108;2022-08-01T21:54:26;0.30;;;0.30;;
22017;SDS011;11173;51.050;7.108;2022-08-01T21:59:33;0.20;;;0.20;;
22017;SDS011;11173;51.050;7.108;2022-08-01T22:05:03;0.40;;;0.20;;
22017;SDS011;11173;51.050;7.108;2022-08-01T22:10:06;0.47;;;0.40;;
22017;SDS011;11173;51.050;7.108;2022-08-01T22:15:07;0.68;;;0.38;;
22017;SDS011;11173;51.050;7.108;2022-08-01T22:20:08;0.47;;;0.47;;
22017;SDS011;11173;51.050;7.108;2022-08-01T22:25:09;0.60;;;0.60;;
22017;SDS011;11173;51.050;7.108;2022-08-01T22:30:11;1.10;;;0.70;;
22017;SDS011;11173;51.050;7.108;2022-08-01T22:35:14;0.30;;;0.30;;
22017;SDS011;11173;51.050;7.108;2022-08-01T22:40:15;0.50;;;0.50;;
22017;SDS011;11173;51.050;7.108;2022-08-01T22:50:37;1.30;;;0.98;;
22017;SDS011;11173;51.050;7.108;2022-08-01T22:55:44;0.93;;;0.88;;
22017;SDS011;11173;51.050;7.108;2022-08-01T23:00:52;0.65;;;0.52;;
22017;SDS011;11173;51.050;7.108;2022-08-01T23:11:06;1.20;;;1.20;;
22017;SDS011;11173;51.050;7.108;2022-08-01T23:16:07;1.10;;;1.00;;
22017;SDS011;11173;51.050;7.108;2022-08-01T23:21:07;0.80;;;0.80;;
22017;SDS011;11173;51.050;7.108;2022-08-01T23:26:09;1.40;;;1.10;;
22017;SDS011;11173;51.050;7.108;2022-08-01T23:31:10;1.00;;;1.00;;
22017;SDS011;11173;51.050;7.108;2022-08-01T23:36:10;1.35;;;1.20;;
22017;SDS011;11173;51.050;7.108;2022-08-01T23:41:11;1.92;;;1.30;;
22017;SDS011;11173;51.050;7.108;2022-08-01T23:46:14;0.90;;;0.90;;
22017;SDS011;11173;51.050;7.108;2022-08-01T23:51:14;2.35;;;1.10;;
22017;SDS011;11173;51.050;7.108;2022-08-01T23:56:15;0.98;;;0.98;;
